sensor_id;sensor_type;location;lat;lon;timestamp;pressure;altitude;pressure_sealevel;temperature;humidity
44825;BME280;30542;47.928;2.138;2023-08-06T00:00:27;100080.75;;;22.23;48.69
44825;BME280;30542;47.928;2.138;2023-08-06T00:05:27;100087.19;;;22.22;48.88
44825;BME280;30542;47.928;2.138;2023-08-06T00:10:27;100085.59;;;22.21;48.74
44825;BME280;30542;47.928;2.138;2023-08-06T00:15:28;100095.53;;;22.20;48.76
44825;BME280;30542;47.928;2.138;2023-08-06T00:20:28;100099.03;;;22.21;48.79
44825;BME280;30542;47.928;2.138;2023-08-06T00:25:28;100108.16;;;22.20;48.71
44825;BME280;30542;47.928;2.138;2023-08-06T00:30:29;100110.84;;;22.20;48.58
44825;BME280;30542;47.928;2.138;2023-08-06T00:35:29;100123.47;;;22.19;48.78
44825;BME280;30542;47.928;2.138;2023-08-06T00:40:30;100116.47;;;22.18;48.82
44825;BME280;30542;47.928;2.138;2023-08-06T00:45:34;100117.84;;;22.16;48.88
44825;BME280;30542;47.928;2.138;2023-08-06T00:50:34;100108.81;;;22.01;48.73
44825;BME280;30542;47.928;2.138;2023-08-06T00:55:35;100138.22;;;22.17;48.93
44825;BME280;30542;47.928;2.138;2023-08-06T01:00:35;100137.72;;;22.15;48.85
44825;BME280;30542;47.928;2.138;2023-08-06T01:05:36;100151.13;;;22.15;48.88
44825;BME280;30542;47.928;2.138;2023-08-06T01:10:51;100157.56;;;22.14;48.71
44825;BME280;30542;47.928;2.138;2023-08-06T01:15:58;100150.59;;;22.13;48.69
44825;BME280;30542;47.928;2.138;2023-08-06T01:20:59;100172.06;;;22.13;48.73
44825;BME280;30542;47.928;2.138;2023-08-06T01:31:56;100188.16;;;22.13;48.73
44825;BME280;30542;47.928;2.138;2023-08-06T01:36:59;100186.53;;;22.12;48.87
44825;BME280;30542;47.928;2.138;2023-08-06T01:42:00;100187.09;;;22.08;48.58
44825;BME280;30542;47.928;2.138;2023-08-06T01:47:00;100200.22;;;22.10;48.90
44825;BME280;30542;47.928;2.138;2023-08-06T01:52:00;100199.41;;;22.09;48.57
44825;BME280;30542;47.928;2.138;2023-08-06T01:57:01;100198.38;;;22.05;48.85
44825;BME280;30542;47.928;2.138;2023-08-06T02:02:01;100199.47;;;22.04;48.79
44825;BME280;30542;47.928;2.138;2023-08-06T02:07:02;100204.53;;;22.06;48.85
44825;BME280;30542;47.928;2.138;2023-08-06T02:12:02;100206.16;;;22.07;49.12
44825;BME280;30542;47.928;2.138;2023-08-06T02:17:03;100197.84;;;22.03;48.99
44825;BME280;30542;47.928;2.138;2023-08-06T02:22:03;100204.25;;;22.07;48.85
44825;BME280;30542;47.928;2.138;2023-08-06T02:27:04;100200.00;;;22.06;49.04
44825;BME280;30542;47.928;2.138;2023-08-06T02:32:04;100203.72;;;22.05;48.85
44825;BME280;30542;47.928;2.138;2023-08-06T02:37:05;100204.03;;;22.04;49.01
44825;BME280;30542;47.928;2.138;2023-08-06T02:42:07;100218.22;;;22.04;48.95
44825;BME280;30542;47.928;2.138;2023-08-06T02:47:07;100208.84;;;22.02;48.94
44825;BME280;30542;47.928;2.138;2023-08-06T02:52:08;100219.81;;;22.05;48.83
44825;BME280;30542;47.928;2.138;2023-08-06T02:57:08;100221.44;;;22.06;48.88
44825;BME280;30542;47.928;2.138;2023-08-06T03:02:08;100226.28;;;22.04;48.59
44825;BME280;30542;47.928;2.138;2023-08-06T03:07:09;100228.97;;;22.04;48.78
44825;BME280;30542;47.928;2.138;2023-08-06T03:12:09;100232.72;;;22.03;48.96
44825;BME280;30542;47.928;2.138;2023-08-06T03:17:09;100234.88;;;22.01;49.02
44825;BME280;30542;47.928;2.138;2023-08-06T03:22:10;100244.25;;;22.04;48.96
44825;BME280;30542;47.928;2.138;2023-08-06T03:27:10;100240.78;;;22.03;49.03
44825;BME280;30542;47.928;2.138;2023-08-06T03:32:10;100232.72;;;22.03;49.10
44825;BME280;30542;47.928;2.138;2023-08-06T03:37:11;100225.78;;;22.02;48.92
44825;BME280;30542;47.928;2.138;2023-08-06T03:42:11;100243.47;;;22.03;48.95
44825;BME280;30542;47.928;2.138;2023-08-06T03:47:12;100238.88;;;22.04;48.87
44825;BME280;30542;47.928;2.138;2023-08-06T03:52:12;100240.78;;;22.03;49.02
44825;BME280;30542;47.928;2.138;2023-08-06T03:57:13;100248.03;;;22.03;48.90
44825;BME280;30542;47.928;2.138;2023-08-06T04:02:13;100247.22;;;22.02;48.69
44825;BME280;30542;47.928;2.138;2023-08-06T04:07:13;100255.53;;;22.01;48.93
44825;BME280;30542;47.928;2.138;2023-08-06T04:12:14;100268.69;;;22.02;48.86
44825;BME280;30542;47.928;2.138;2023-08-06T04:17:14;100271.38;;;22.02;48.79
44825;BME280;30542;47.928;2.138;2023-08-06T04:22:14;100276.72;;;22.02;48.93
44825;BME280;30542;47.928;2.138;2023-08-06T04:27:15;100283.72;;;21.98;49.12
44825;BME280;30542;47.928;2.138;2023-08-06T04:32:16;100309.47;;;21.99;48.91
44825;BME280;30542;47.928;2.138;2023-08-06T04:37:17;100309.72;;;21.98;48.92
44825;BME280;30542;47.928;2.138;2023-08-06T04:42:17;100307.03;;;21.98;48.78
44825;BME280;30542;47.928;2.138;2023-08-06T04:47:17;100328.50;;;21.98;49.07
44825;BME280;30542;47.928;2.138;2023-08-06T04:52:18;100339.00;;;21.94;49.16
44825;BME280;30542;47.928;2.138;2023-08-06T04:57:20;100350.78;;;21.93;49.00
44825;BME280;30542;47.928;2.138;2023-08-06T05:02:20;100368.50;;;21.94;48.90
44825;BME280;30542;47.928;2.138;2023-08-06T05:07:21;100371.97;;;21.95;49.09
44825;BME280;30542;47.928;2.138;2023-08-06T05:12:21;100386.44;;;21.94;48.43
44825;BME280;30542;47.928;2.138;2023-08-06T05:17:21;100404.41;;;21.93;48.79
44825;BME280;30542;47.928;2.138;2023-08-06T05:22:23;100396.38;;;21.93;48.85
44825;BME280;30542;47.928;2.138;2023-08-06T05:27:23;100408.19;;;21.92;48.95
44825;BME280;30542;47.928;2.138;2023-08-06T05:32:24;100410.84;;;21.92;49.03
44825;BME280;30542;47.928;2.138;2023-08-06T05:37:24;100406.59;;;21.91;48.99
44825;BME280;30542;47.928;2.138;2023-08-06T05:42:24;100415.44;;;21.92;49.37
44825;BME280;30542;47.928;2.138;2023-08-06T05:47:24;100417.31;;;21.91;49.10
44825;BME280;30542;47.928;2.138;2023-08-06T05:52:25;100426.44;;;21.90;49.02
44825;BME280;30542;47.928;2.138;2023-08-06T05:57:25;100419.44;;;21.89;49.04
44825;BME280;30542;47.928;2.138;2023-08-06T06:02:25;100433.66;;;21.90;49.03
44825;BME280;30542;47.928;2.138;2023-08-06T06:07:26;100433.66;;;21.90;49.22
44825;BME280;30542;47.928;2.138;2023-08-06T06:12:26;100430.75;;;21.86;48.97
44825;BME280;30542;47.928;2.138;2023-08-06T06:17:27;100430.72;;;21.91;48.51
44825;BME280;30542;47.928;2.138;2023-08-06T06:22:27;100439.84;;;21.90;49.25
44825;BME280;30542;47.928;2.138;2023-08-06T06:27:28;100449.75;;;21.90;48.94
44825;BME280;30542;47.928;2.138;2023-08-06T06:32:29;100458.34;;;21.87;48.98
44825;BME280;30542;47.928;2.138;2023-08-06T06:37:29;100459.16;;;21.87;49.20
44825;BME280;30542;47.928;2.138;2023-08-06T06:42:29;100461.03;;;21.87;49.13
44825;BME280;30542;47.928;2.138;2023-08-06T06:47:30;100463.16;;;21.84;49.19
44825;BME280;30542;47.928;2.138;2023-08-06T06:52:30;100470.69;;;21.82;49.23
44825;BME280;30542;47.928;2.138;2023-08-06T06:57:30;100472.03;;;21.80;49.18
44825;BME280;30542;47.928;2.138;2023-08-06T07:02:30;100476.09;;;21.77;49.41
44825;BME280;30542;47.928;2.138;2023-08-06T07:07:31;100487.84;;;21.76;49.38
44825;BME280;30542;47.928;2.138;2023-08-06T07:12:31;100481.44;;;21.72;49.28
44825;BME280;30542;47.928;2.138;2023-08-06T07:17:31;100491.34;;;21.72;49.49
44825;BME280;30542;47.928;2.138;2023-08-06T07:22:32;100506.34;;;21.73;49.54
44825;BME280;30542;47.928;2.138;2023-08-06T07:27:32;100502.34;;;21.75;49.47
44825;BME280;30542;47.928;2.138;2023-08-06T07:32:32;100512.78;;;21.77;48.92
44825;BME280;30542;47.928;2.138;2023-08-06T07:37:33;100510.66;;;21.69;49.49
44825;BME280;30542;47.928;2.138;2023-08-06T07:42:33;100506.91;;;21.75;49.53
44825;BME280;30542;47.928;2.138;2023-08-06T07:47:34;100510.13;;;21.82;49.77
44825;BME280;30542;47.928;2.138;2023-08-06T07:52:34;100504.19;;;21.85;49.92
44825;BME280;30542;47.928;2.138;2023-08-06T07:57:35;100502.06;;;21.87;49.67
44825;BME280;30542;47.928;2.138;2023-08-06T08:02:35;100514.09;;;21.90;49.43
44825;BME280;30542;47.928;2.138;2023-08-06T08:07:35;100517.84;;;21.94;51.56
44825;BME280;30542;47.928;2.138;2023-08-06T08:12:36;100524.53;;;22.01;53.50
44825;BME280;30542;47.928;2.138;2023-08-06T08:17:36;100521.28;;;22.09;54.70
44825;BME280;30542;47.928;2.138;2023-08-06T08:22:36;100526.16;;;22.13;54.76
44825;BME280;30542;47.928;2.138;2023-08-06T08:27:37;100538.72;;;22.22;56.22
44825;BME280;30542;47.928;2.138;2023-08-06T08:32:37;100537.91;;;22.27;52.55
44825;BME280;30542;47.928;2.138;2023-08-06T08:37:37;100524.22;;;22.28;51.27
44825;BME280;30542;47.928;2.138;2023-08-06T08:42:38;100534.41;;;22.37;50.82
44825;BME280;30542;47.928;2.138;2023-08-06T08:47:39;100541.63;;;22.41;50.88
44825;BME280;30542;47.928;2.138;2023-08-06T08:52:40;100552.06;;;22.43;52.20
44825;BME280;30542;47.928;2.138;2023-08-06T08:57:40;100553.19;;;22.37;51.85
44825;BME280;30542;47.928;2.138;2023-08-06T09:02:41;100563.66;;;22.33;50.29
44825;BME280;30542;47.928;2.138;2023-08-06T09:07:42;100558.84;;;22.30;48.83
44825;BME280;30542;47.928;2.138;2023-08-06T09:12:46;100570.66;;;22.29;47.80
44825;BME280;30542;47.928;2.138;2023-08-06T09:17:47;100566.09;;;22.29;47.17
44825;BME280;30542;47.928;2.138;2023-08-06T09:22:47;100579.75;;;22.33;46.61
44825;BME280;30542;47.928;2.138;2023-08-06T09:27:49;100561.78;;;22.33;46.47
44825;BME280;30542;47.928;2.138;2023-08-06T09:32:50;100575.19;;;22.44;46.17
44825;BME280;30542;47.928;2.138;2023-08-06T09:37:51;100585.34;;;22.47;45.84
44825;BME280;30542;47.928;2.138;2023-08-06T09:42:52;100575.94;;;22.49;45.52
44825;BME280;30542;47.928;2.138;2023-08-06T09:47:55;100600.91;;;22.50;45.12
44825;BME280;30542;47.928;2.138;2023-08-06T09:52:56;100594.75;;;22.49;44.71
44825;BME280;30542;47.928;2.138;2023-08-06T09:57:58;100597.16;;;22.51;44.15
44825;BME280;30542;47.928;2.138;2023-08-06T10:03:02;100600.63;;;22.51;43.93
44825;BME280;30542;47.928;2.138;2023-08-06T10:08:03;100596.88;;;22.52;43.98
44825;BME280;30542;47.928;2.138;2023-08-06T10:13:05;100593.91;;;22.54;44.15
44825;BME280;30542;47.928;2.138;2023-08-06T10:18:07;100597.13;;;22.56;44.26
44825;BME280;30542;47.928;2.138;2023-08-06T10:23:08;100609.75;;;22.61;44.66
44825;BME280;30542;47.928;2.138;2023-08-06T10:28:10;100607.06;;;22.61;44.79
44825;BME280;30542;47.928;2.138;2023-08-06T10:33:13;100615.09;;;22.55;45.00
44825;BME280;30542;47.928;2.138;2023-08-06T10:38:18;100617.25;;;22.58;44.98
44825;BME280;30542;47.928;2.138;2023-08-06T10:43:34;100614.06;;;22.56;45.00
44825;BME280;30542;47.928;2.138;2023-08-06T10:48:39;100616.19;;;22.54;44.96
44825;BME280;30542;47.928;2.138;2023-08-06T10:53:44;100629.91;;;22.53;45.15
44825;BME280;30542;47.928;2.138;2023-08-06T10:58:45;100625.88;;;22.50;45.24
44825;BME280;30542;47.928;2.138;2023-08-06T11:03:46;100629.34;;;22.51;45.25
44825;BME280;30542;47.928;2.138;2023-08-06T11:08:53;100638.50;;;22.50;45.29
44825;BME280;30542;47.928;2.138;2023-08-06T11:13:54;100640.66;;;22.48;45.12
44825;BME280;30542;47.928;2.138;2023-08-06T11:18:55;100631.53;;;22.49;45.38
44825;BME280;30542;47.928;2.138;2023-08-06T11:23:56;100631.78;;;22.47;45.48
44825;BME280;30542;47.928;2.138;2023-08-06T11:28:57;100637.16;;;22.47;45.21
44825;BME280;30542;47.928;2.138;2023-08-06T11:33:57;100640.13;;;22.46;45.24
44825;BME280;30542;47.928;2.138;2023-08-06T11:38:59;100638.22;;;22.46;45.33
44825;BME280;30542;47.928;2.138;2023-08-06T11:43:59;100630.19;;;22.41;45.44
44825;BME280;30542;47.928;2.138;2023-08-06T11:49:00;100634.75;;;22.46;45.16
44825;BME280;30542;47.928;2.138;2023-08-06T11:54:00;100633.94;;;22.45;45.49
44825;BME280;30542;47.928;2.138;2023-08-06T11:59:02;100635.03;;;22.44;45.16
44825;BME280;30542;47.928;2.138;2023-08-06T12:04:04;100635.81;;;22.45;45.40
44825;BME280;30542;47.928;2.138;2023-08-06T12:09:05;100633.41;;;22.43;45.08
44825;BME280;30542;47.928;2.138;2023-08-06T12:14:05;100634.47;;;22.42;45.49
44825;BME280;30542;47.928;2.138;2023-08-06T12:19:06;100625.34;;;22.43;45.50
44825;BME280;30542;47.928;2.138;2023-08-06T12:24:07;100628.84;;;22.44;45.30
44825;BME280;30542;47.928;2.138;2023-08-06T12:29:07;100631.78;;;22.42;45.39
44825;BME280;30542;47.928;2.138;2023-08-06T12:34:08;100632.59;;;22.43;45.17
44825;BME280;30542;47.928;2.138;2023-08-06T12:39:08;100641.44;;;22.43;45.33
44825;BME280;30542;47.928;2.138;2023-08-06T12:44:08;100651.38;;;22.43;44.96
44825;BME280;30542;47.928;2.138;2023-08-06T12:49:09;100640.94;;;22.41;45.18
44825;BME280;30542;47.928;2.138;2023-08-06T12:54:09;100647.38;;;22.40;45.40
44825;BME280;30542;47.928;2.138;2023-08-06T12:59:10;100651.66;;;22.41;45.10
44825;BME280;30542;47.928;2.138;2023-08-06T13:04:10;100651.13;;;22.39;45.31
44825;BME280;30542;47.928;2.138;2023-08-06T13:09:12;100643.63;;;22.36;45.25
44825;BME280;30542;47.928;2.138;2023-08-06T13:14:13;100660.81;;;22.40;45.36
44825;BME280;30542;47.928;2.138;2023-08-06T13:19:14;100653.81;;;22.39;45.14
44825;BME280;30542;47.928;2.138;2023-08-06T13:24:14;100666.16;;;22.40;45.27
44825;BME280;30542;47.928;2.138;2023-08-06T13:29:14;100654.88;;;22.38;45.12
44825;BME280;30542;47.928;2.138;2023-08-06T13:34:15;100660.53;;;22.37;45.19
44825;BME280;30542;47.928;2.138;2023-08-06T13:39:16;100661.34;;;22.37;45.57
44825;BME280;30542;47.928;2.138;2023-08-06T13:44:17;100655.97;;;22.37;45.27
44825;BME280;30542;47.928;2.138;2023-08-06T13:49:17;100662.41;;;22.36;45.41
44825;BME280;30542;47.928;2.138;2023-08-06T13:54:18;100663.75;;;22.33;45.15
44825;BME280;30542;47.928;2.138;2023-08-06T13:59:20;100659.75;;;22.36;45.40
44825;BME280;30542;47.928;2.138;2023-08-06T14:04:21;100658.94;;;22.36;45.40
44825;BME280;30542;47.928;2.138;2023-08-06T14:09:21;100650.59;;;22.37;45.27
44825;BME280;30542;47.928;2.138;2023-08-06T14:14:21;100647.91;;;22.37;45.23
44825;BME280;30542;47.928;2.138;2023-08-06T14:19:26;100657.59;;;22.33;45.27
44825;BME280;30542;47.928;2.138;2023-08-06T14:24:26;100658.09;;;22.35;45.16
44825;BME280;30542;47.928;2.138;2023-08-06T14:29:26;100663.47;;;22.35;45.34
44825;BME280;30542;47.928;2.138;2023-08-06T14:34:27;100665.34;;;22.34;45.07
44825;BME280;30542;47.928;2.138;2023-08-06T14:39:27;100663.47;;;22.35;45.35
44825;BME280;30542;47.928;2.138;2023-08-06T14:44:28;100669.91;;;22.34;45.21
44825;BME280;30542;47.928;2.138;2023-08-06T14:49:28;100675.56;;;22.32;45.20
44825;BME280;30542;47.928;2.138;2023-08-06T14:54:28;100671.28;;;22.31;45.33
44825;BME280;30542;47.928;2.138;2023-08-06T14:59:29;100666.97;;;22.30;45.32
44825;BME280;30542;47.928;2.138;2023-08-06T15:04:29;100665.91;;;22.31;45.42
44825;BME280;30542;47.928;2.138;2023-08-06T15:09:30;100671.53;;;22.30;45.50
44825;BME280;30542;47.928;2.138;2023-08-06T15:14:30;100666.16;;;22.30;45.86
44825;BME280;30542;47.928;2.138;2023-08-06T15:19:30;100666.16;;;22.30;45.49
44825;BME280;30542;47.928;2.138;2023-08-06T15:24:31;100663.50;;;22.30;45.54
44825;BME280;30542;47.928;2.138;2023-08-06T15:29:31;100661.09;;;22.28;45.43
44825;BME280;30542;47.928;2.138;2023-08-06T15:34:31;100666.16;;;22.30;45.33
44825;BME280;30542;47.928;2.138;2023-08-06T15:39:32;100671.81;;;22.28;45.76
44825;BME280;30542;47.928;2.138;2023-08-06T15:44:32;100661.34;;;22.27;45.77
44825;BME280;30542;47.928;2.138;2023-08-06T15:49:33;100657.59;;;22.28;45.48
44825;BME280;30542;47.928;2.138;2023-08-06T15:54:33;100658.41;;;22.28;45.73
44825;BME280;30542;47.928;2.138;2023-08-06T15:59:33;100662.97;;;22.28;45.67
44825;BME280;30542;47.928;2.138;2023-08-06T16:04:34;100668.34;;;22.28;45.66
44825;BME280;30542;47.928;2.138;2023-08-06T16:09:34;100671.00;;;22.28;45.54
44825;BME280;30542;47.928;2.138;2023-08-06T16:14:35;100672.63;;;22.29;45.52
44825;BME280;30542;47.928;2.138;2023-08-06T16:19:36;100664.56;;;22.29;45.69
44825;BME280;30542;47.928;2.138;2023-08-06T16:24:37;100666.16;;;22.30;45.56
44825;BME280;30542;47.928;2.138;2023-08-06T16:29:37;100659.72;;;22.31;45.64
44825;BME280;30542;47.928;2.138;2023-08-06T16:34:38;100667.53;;;22.32;45.71
44825;BME280;30542;47.928;2.138;2023-08-06T16:39:38;100665.63;;;22.33;45.80
44825;BME280;30542;47.928;2.138;2023-08-06T16:44:38;100669.66;;;22.30;45.87
44825;BME280;30542;47.928;2.138;2023-08-06T16:49:40;100673.41;;;22.29;45.78
44825;BME280;30542;47.928;2.138;2023-08-06T16:59:38;100694.38;;;22.27;45.40
44825;BME280;30542;47.928;2.138;2023-08-06T17:04:38;100691.13;;;22.25;45.35
44825;BME280;30542;47.928;2.138;2023-08-06T17:09:38;100687.66;;;22.25;45.38
44825;BME280;30542;47.928;2.138;2023-08-06T17:14:39;100693.53;;;22.27;45.45
44825;BME280;30542;47.928;2.138;2023-08-06T17:19:42;100690.84;;;22.27;45.35
44825;BME280;30542;47.928;2.138;2023-08-06T17:24:43;100694.38;;;22.27;45.58
44825;BME280;30542;47.928;2.138;2023-08-06T17:29:43;100697.06;;;22.27;45.47
44825;BME280;30542;47.928;2.138;2023-08-06T17:34:43;100695.97;;;22.28;45.72
44825;BME280;30542;47.928;2.138;2023-08-06T17:39:44;100689.81;;;22.28;45.46
44825;BME280;30542;47.928;2.138;2023-08-06T17:44:44;100689.81;;;22.28;45.65
44825;BME280;30542;47.928;2.138;2023-08-06T17:49:44;100703.75;;;22.30;45.68
44825;BME280;30542;47.928;2.138;2023-08-06T17:54:45;100712.88;;;22.29;45.74
44825;BME280;30542;47.928;2.138;2023-08-06T17:59:45;100719.03;;;22.29;45.65
44825;BME280;30542;47.928;2.138;2023-08-06T18:04:45;100700.53;;;22.28;46.09
44825;BME280;30542;47.928;2.138;2023-08-06T18:09:46;100706.16;;;22.31;45.72
44825;BME280;30542;47.928;2.138;2023-08-06T18:14:46;100709.38;;;22.28;45.68
44825;BME280;30542;47.928;2.138;2023-08-06T18:19:46;100697.56;;;22.29;45.96
44825;BME280;30542;47.928;2.138;2023-08-06T18:24:47;100712.88;;;22.29;45.87
44825;BME280;30542;47.928;2.138;2023-08-06T18:29:47;100711.28;;;22.28;45.86
44825;BME280;30542;47.928;2.138;2023-08-06T18:34:48;100719.84;;;22.30;45.88
44825;BME280;30542;47.928;2.138;2023-08-06T18:39:49;100709.38;;;22.28;45.93
44825;BME280;30542;47.928;2.138;2023-08-06T18:44:49;100726.81;;;22.31;46.01
44825;BME280;30542;47.928;2.138;2023-08-06T18:49:49;100724.13;;;22.31;45.96
44825;BME280;30542;47.928;2.138;2023-08-06T18:54:50;100735.94;;;22.30;45.68
44825;BME280;30542;47.928;2.138;2023-08-06T18:59:50;100737.53;;;22.31;45.99
44825;BME280;30542;47.928;2.138;2023-08-06T19:04:54;100742.38;;;22.29;46.01
44825;BME280;30542;47.928;2.138;2023-08-06T19:09:54;100750.44;;;22.29;45.95
44825;BME280;30542;47.928;2.138;2023-08-06T19:14:55;100756.88;;;22.28;45.99
44825;BME280;30542;47.928;2.138;2023-08-06T19:19:55;100754.72;;;22.30;45.99
44825;BME280;30542;47.928;2.138;2023-08-06T19:24:56;100752.31;;;22.28;45.48
44825;BME280;30542;47.928;2.138;2023-08-06T19:29:56;100753.41;;;22.27;46.11
44825;BME280;30542;47.928;2.138;2023-08-06T19:34:56;100758.78;;;22.27;46.01
44825;BME280;30542;47.928;2.138;2023-08-06T19:39:57;100770.31;;;22.28;46.06
44825;BME280;30542;47.928;2.138;2023-08-06T19:44:57;100770.84;;;22.25;46.14
44825;BME280;30542;47.928;2.138;2023-08-06T19:49:58;100779.97;;;22.24;46.01
44825;BME280;30542;47.928;2.138;2023-08-06T19:54:58;100776.19;;;22.25;46.29
44825;BME280;30542;47.928;2.138;2023-08-06T20:00:00;100779.69;;;22.25;46.17
44825;BME280;30542;47.928;2.138;2023-08-06T20:05:01;100790.69;;;22.24;46.24
44825;BME280;30542;47.928;2.138;2023-08-06T20:10:01;100804.91;;;22.19;46.49
44825;BME280;30542;47.928;2.138;2023-08-06T20:15:02;100804.91;;;22.19;46.42
44825;BME280;30542;47.928;2.138;2023-08-06T20:20:02;100811.88;;;22.20;46.45
44825;BME280;30542;47.928;2.138;2023-08-06T20:25:03;100803.28;;;22.18;46.77
44825;BME280;30542;47.928;2.138;2023-08-06T20:30:04;100803.28;;;22.18;46.64
44825;BME280;30542;47.928;2.138;2023-08-06T20:35:06;100807.84;;;22.18;46.67
44825;BME280;30542;47.928;2.138;2023-08-06T20:40:08;100815.09;;;22.17;46.79
44825;BME280;30542;47.928;2.138;2023-08-06T20:45:08;100819.66;;;22.17;46.80
44825;BME280;30542;47.928;2.138;2023-08-06T20:50:09;100825.03;;;22.17;46.75
44825;BME280;30542;47.928;2.138;2023-08-06T20:55:09;100824.22;;;22.16;46.72
44825;BME280;30542;47.928;2.138;2023-08-06T21:00:12;100824.50;;;22.15;47.00
44825;BME280;30542;47.928;2.138;2023-08-06T21:05:12;100827.69;;;22.12;46.96
44825;BME280;30542;47.928;2.138;2023-08-06T21:15:13;100843.28;;;22.15;46.93
44825;BME280;30542;47.928;2.138;2023-08-06T21:20:13;100845.97;;;22.15;47.15
44825;BME280;30542;47.928;2.138;2023-08-06T21:25:14;100843.53;;;22.13;47.09
44825;BME280;30542;47.928;2.138;2023-08-06T21:35:14;100841.66;;;22.14;47.00
44825;BME280;30542;47.928;2.138;2023-08-06T21:40:15;100844.31;;;22.14;47.12
44825;BME280;30542;47.928;2.138;2023-08-06T21:45:15;100844.31;;;22.14;47.09
44825;BME280;30542;47.928;2.138;2023-08-06T21:55:16;100847.28;;;22.17;47.16
44825;BME280;30542;47.928;2.138;2023-08-06T22:00:16;100833.88;;;22.17;47.58
44825;BME280;30542;47.928;2.138;2023-08-06T22:05:17;100837.63;;;22.16;47.15
44825;BME280;30542;47.928;2.138;2023-08-06T22:10:17;100846.78;;;22.15;47.14
44825;BME280;30542;47.928;2.138;2023-08-06T22:15:17;100848.66;;;22.15;47.26
44825;BME280;30542;47.928;2.138;2023-08-06T22:20:18;100845.69;;;22.16;47.53
44825;BME280;30542;47.928;2.138;2023-08-06T22:25:19;100853.47;;;22.18;47.33
44825;BME280;30542;47.928;2.138;2023-08-06T22:30:19;100855.34;;;22.17;47.66
44825;BME280;30542;47.928;2.138;2023-08-06T22:35:20;100856.16;;;22.18;47.53
44825;BME280;30542;47.928;2.138;2023-08-06T22:40:20;100857.22;;;22.17;47.44
44825;BME280;30542;47.928;2.138;2023-08-06T22:45:21;100870.63;;;22.17;47.55
44825;BME280;30542;47.928;2.138;2023-08-06T22:50:21;100880.56;;;22.16;47.83
44825;BME280;30542;47.928;2.138;2023-08-06T22:55:22;100875.47;;;22.15;47.77
44825;BME280;30542;47.928;2.138;2023-08-06T23:00:22;100880.84;;;22.15;47.68
44825;BME280;30542;47.928;2.138;2023-08-06T23:10:23;100888.34;;;22.13;47.78
44825;BME280;30542;47.928;2.138;2023-08-06T23:15:23;100887.50;;;22.12;48.18
44825;BME280;30542;47.928;2.138;2023-08-06T23:20:23;100884.81;;;22.12;47.90
44825;BME280;30542;47.928;2.138;2023-08-06T23:25:24;100883.22;;;22.11;48.01
44825;BME280;30542;47.928;2.138;2023-08-06T23:30:24;100888.56;;;22.11;48.05
44825;BME280;30542;47.928;2.138;2023-08-06T23:35:24;100886.13;;;22.09;47.95
44825;BME280;30542;47.928;2.138;2023-08-06T23:40:25;100882.41;;;22.11;48.17
44825;BME280;30542;47.928;2.138;2023-08-06T23:45:25;100887.78;;;22.11;47.97
44825;BME280;30542;47.928;2.138;2023-08-06T23:50:25;100889.38;;;22.12;48.17
44825;BME280;30542;47.928;2.138;2023-08-06T23:55:26;100886.94;;;22.10;47.80
